createdAt,value
2023-01-13T00:01:27.240Z,11.23
2023-01-13T00:03:54.813Z,9.48
2023-01-13T00:06:26.319Z,13.23
2023-01-13T00:08:54.404Z,10.18
2023-01-13T00:11:23.103Z,13.52
2023-01-13T00:13:50.607Z,15.30
2023-01-13T00:16:19.390Z,10.18
2023-01-13T00:18:47.999Z,10.75
2023-01-13T00:21:18.525Z,16.90
2023-01-13T00:23:47.066Z,12.25
2023-01-13T00:26:17.982Z,10.82
2023-01-13T00:28:45.443Z,13.00
2023-01-13T00:31:15.725Z,11.00
2023-01-13T00:33:43.653Z,13.05
2023-01-13T00:36:15.113Z,17.88
2023-01-13T00:38:43.359Z,17.45
2023-01-13T00:41:22.296Z,12.40
2023-01-13T00:43:50.493Z,17.15
2023-01-13T00:46:22.046Z,15.80
2023-01-13T00:48:50.125Z,13.98
2023-01-13T00:51:20.113Z,18.33
2023-01-13T00:53:50.297Z,15.63
2023-01-13T00:56:40.856Z,13.55
2023-01-13T00:59:11.984Z,16.88
2023-01-13T01:01:40.617Z,19.77
2023-01-13T01:04:08.351Z,17.67
2023-01-13T01:06:36.035Z,13.57
2023-01-13T01:09:04.214Z,18.42
2023-01-13T01:11:32.940Z,17.27
2023-01-13T01:14:04.065Z,16.02
2023-01-13T01:16:33.428Z,15.48
2023-01-13T01:19:01.567Z,12.98
2023-01-13T01:21:29.757Z,15.10
2023-01-13T01:24:00.848Z,14.52
2023-01-13T01:26:30.550Z,15.10
2023-01-13T01:28:58.088Z,12.00
2023-01-13T01:31:28.477Z,17.80
2023-01-13T01:33:56.393Z,17.52
2023-01-13T01:36:30.358Z,20.38
2023-01-13T01:38:59.131Z,18.98
2023-01-13T01:41:30.329Z,19.45
2023-01-13T01:44:00.647Z,18.83
2023-01-13T01:46:29.809Z,11.45
2023-01-13T01:49:06.749Z,13.90
2023-01-13T01:51:48.542Z,13.07
2023-01-13T01:54:25.542Z,14.32
2023-01-13T01:56:53.702Z,9.40
2023-01-13T01:59:21.749Z,17.05
2023-01-13T02:01:49.525Z,16.13
2023-01-13T02:04:23.606Z,14.55
2023-01-13T02:06:52.656Z,20.45
2023-01-13T02:09:20.164Z,16.38
2023-01-13T02:12:05.919Z,14.18
2023-01-13T02:14:34.759Z,14.02
2023-01-13T02:17:26.340Z,14.07
2023-01-13T02:20:12.515Z,21.90
2023-01-13T02:23:04.144Z,17.33
2023-01-13T02:26:14.365Z,10.93
2023-01-13T02:29:34.541Z,17.80
2023-01-13T02:32:20.015Z,21.75
2023-01-13T02:35:01.758Z,16.00
2023-01-13T02:37:32.150Z,18.33
2023-01-13T02:40:27.321Z,11.13
2023-01-13T02:43:27.034Z,16.80
2023-01-13T02:46:18.534Z,18.05
2023-01-13T02:48:48.822Z,12.60
2023-01-13T02:51:20.206Z,12.57
2023-01-13T02:54:10.532Z,19.58
2023-01-13T02:56:42.363Z,29.13
2023-01-13T02:59:10.967Z,17.55
2023-01-13T03:01:38.762Z,28.58
2023-01-13T03:04:43.306Z,15.50
2023-01-13T03:07:22.051Z,30.38
2023-01-13T03:10:11.346Z,18.70
2023-01-13T03:12:41.894Z,19.95
2023-01-13T03:15:15.383Z,28.23
2023-01-13T03:17:50.234Z,20.10
2023-01-13T03:20:25.719Z,25.95
2023-01-13T03:23:13.801Z,21.77
2023-01-13T03:25:53.993Z,13.05
2023-01-13T03:28:28.557Z,18.55
2023-01-13T03:31:03.717Z,31.05
2023-01-13T03:33:41.830Z,19.70
2023-01-13T03:36:13.486Z,15.32
2023-01-13T03:38:49.891Z,14.90
2023-01-13T03:41:46.821Z,16.33
2023-01-13T03:44:23.007Z,14.73
2023-01-13T03:47:21.093Z,14.55
2023-01-13T03:50:19.708Z,12.55
2023-01-13T03:52:58.745Z,12.88
2023-01-13T03:55:34.626Z,21.40
2023-01-13T03:58:06.968Z,12.82
2023-01-13T04:00:41.413Z,12.35
2023-01-13T04:03:12.779Z,19.55
2023-01-13T04:05:44.242Z,15.27
2023-01-13T04:08:20.744Z,18.00
2023-01-13T04:11:03.824Z,13.43
2023-01-13T04:13:37.201Z,14.23
2023-01-13T04:16:07.957Z,15.30
2023-01-13T04:18:38.793Z,11.68
2023-01-13T04:21:07.691Z,16.65
2023-01-13T04:23:35.509Z,13.18
2023-01-13T04:26:03.082Z,9.82
2023-01-13T04:28:30.514Z,12.13
2023-01-13T04:30:58.101Z,14.68
2023-01-13T04:33:25.566Z,14.85
2023-01-13T04:35:53.143Z,10.50
2023-01-13T04:38:21.841Z,13.85
2023-01-13T04:40:49.619Z,18.13
2023-01-13T04:43:17.163Z,12.30
2023-01-13T04:45:44.878Z,17.88
2023-01-13T04:48:13.116Z,16.23
2023-01-13T04:50:40.726Z,12.18
2023-01-13T04:53:08.727Z,11.85
2023-01-13T04:55:36.347Z,10.63
2023-01-13T04:58:09.254Z,15.95
2023-01-13T05:00:37.330Z,11.50
2023-01-13T05:03:05.489Z,19.23
2023-01-13T05:05:33.447Z,13.15
2023-01-13T05:08:00.978Z,18.40
2023-01-13T05:10:28.626Z,13.65
2023-01-13T05:13:14.358Z,14.15
2023-01-13T05:16:01.700Z,8.45
2023-01-13T05:18:31.321Z,10.15
2023-01-13T05:20:58.916Z,10.95
2023-01-13T05:23:45.171Z,14.82
2023-01-13T05:26:12.702Z,11.15
2023-01-13T05:28:40.189Z,14.57
2023-01-13T05:31:07.799Z,12.82
2023-01-13T05:33:36.382Z,13.98
2023-01-13T05:36:04.246Z,7.05
2023-01-13T05:38:31.771Z,9.68
2023-01-13T05:41:20.875Z,11.63
2023-01-13T05:43:48.479Z,13.23
2023-01-13T05:46:17.869Z,17.55
2023-01-13T05:48:45.820Z,11.88
2023-01-13T05:51:13.893Z,10.70
2023-01-13T05:53:41.736Z,11.02
2023-01-13T05:56:10.167Z,6.85
2023-01-13T05:58:38.160Z,13.02
2023-01-13T06:01:08.634Z,7.80
2023-01-13T06:03:37.106Z,7.25
2023-01-13T06:06:05.005Z,8.43
2023-01-13T06:08:32.851Z,8.48
2023-01-13T06:11:00.651Z,9.05
2023-01-13T06:13:28.386Z,15.15
2023-01-13T06:15:59.498Z,14.00
2023-01-13T06:18:27.943Z,20.15
2023-01-13T06:20:55.957Z,11.65
2023-01-13T06:23:24.024Z,14.40
2023-01-13T06:26:07.224Z,10.77
2023-01-13T06:28:35.146Z,13.05
2023-01-13T06:31:06.603Z,7.03
2023-01-13T06:33:39.190Z,15.75
2023-01-13T06:36:17.319Z,7.97
2023-01-13T06:38:48.162Z,12.80
2023-01-13T06:41:16.484Z,9.65
2023-01-13T06:43:44.010Z,10.95
2023-01-13T06:46:11.489Z,9.32
2023-01-13T06:48:39.013Z,13.15
2023-01-13T06:51:06.662Z,14.98
2023-01-13T06:53:34.142Z,12.07
2023-01-13T06:56:01.702Z,13.00
2023-01-13T06:58:29.343Z,14.55
2023-01-13T07:01:01.311Z,12.05
2023-01-13T07:03:28.856Z,12.45
2023-01-13T07:05:57.073Z,13.73
2023-01-13T07:08:25.162Z,9.60
2023-01-13T07:10:53.340Z,9.35
2023-01-13T07:13:39.836Z,17.20
2023-01-13T07:16:09.698Z,14.00
2023-01-13T07:18:37.288Z,13.15
2023-01-13T07:21:10.685Z,9.18
2023-01-13T07:23:40.810Z,9.25
2023-01-13T07:26:10.263Z,6.90
2023-01-13T07:28:38.682Z,6.75
2023-01-13T07:31:12.865Z,12.70
2023-01-13T07:33:40.665Z,10.60
2023-01-13T07:36:08.478Z,9.18
2023-01-13T07:38:36.510Z,10.13
2023-01-13T07:41:22.313Z,10.07
2023-01-13T07:43:50.005Z,9.73
2023-01-13T07:46:18.324Z,9.25
2023-01-13T07:48:49.214Z,9.05
2023-01-13T07:51:16.863Z,9.60
2023-01-13T07:53:44.311Z,14.55
2023-01-13T07:56:11.844Z,9.85
2023-01-13T07:58:39.423Z,9.77
2023-01-13T08:01:14.324Z,10.90
2023-01-13T08:03:42.014Z,10.80
2023-01-13T08:06:10.773Z,13.10
2023-01-13T08:08:38.769Z,11.57
2023-01-13T08:11:08.547Z,8.85
2023-01-13T08:13:36.241Z,12.57
2023-01-13T08:16:11.130Z,10.25
2023-01-13T08:18:39.237Z,17.48
2023-01-13T08:21:10.047Z,9.15
2023-01-13T08:23:38.343Z,14.02
2023-01-13T08:26:08.520Z,10.20
2023-01-13T08:28:36.113Z,19.13
2023-01-13T08:31:06.621Z,13.63
2023-01-13T08:33:34.715Z,12.02
2023-01-13T08:36:06.962Z,11.93
2023-01-13T08:38:36.845Z,9.35
2023-01-13T08:41:12.781Z,8.50
2023-01-13T08:43:40.568Z,14.10
2023-01-13T08:46:08.239Z,10.40
2023-01-13T08:48:36.033Z,12.48
2023-01-13T08:51:06.243Z,15.05
2023-01-13T08:53:33.733Z,14.82
2023-01-13T08:56:01.203Z,8.02
2023-01-13T08:58:28.717Z,11.98
2023-01-13T09:00:56.487Z,9.73
2023-01-13T09:03:24.051Z,11.88
2023-01-13T09:05:51.477Z,16.55
2023-01-13T09:08:19.043Z,11.10
2023-01-13T09:10:46.550Z,13.27
2023-01-13T09:13:15.721Z,9.90
2023-01-13T09:15:46.249Z,8.40
2023-01-13T09:18:14.208Z,13.77
2023-01-13T09:20:41.928Z,12.60
2023-01-13T09:23:10.968Z,10.82
2023-01-13T09:25:39.648Z,9.13
2023-01-13T09:28:08.809Z,8.52
2023-01-13T09:30:37.802Z,6.43
2023-01-13T09:33:23.881Z,4.80
2023-01-13T09:35:51.424Z,7.93
2023-01-13T09:38:19.071Z,9.10
2023-01-13T09:40:49.253Z,9.13
2023-01-13T09:43:38.560Z,14.02
2023-01-13T09:46:34.752Z,13.68
2023-01-13T09:49:03.973Z,12.23
2023-01-13T09:51:38.775Z,14.93
2023-01-13T09:54:33.124Z,10.00
2023-01-13T09:57:01.264Z,12.57
2023-01-13T09:59:36.603Z,8.40
2023-01-13T10:02:33.107Z,8.60
2023-01-13T10:05:17.583Z,9.55
2023-01-13T10:08:10.596Z,12.10
2023-01-13T10:10:46.431Z,11.90
2023-01-13T10:13:22.086Z,14.48
2023-01-13T10:16:11.138Z,9.75
2023-01-13T10:18:50.500Z,13.35
2023-01-13T10:21:54.534Z,7.53
2023-01-13T10:24:49.211Z,13.90
2023-01-13T10:27:24.912Z,9.02
2023-01-13T10:29:52.537Z,13.27
2023-01-13T10:32:20.064Z,13.00
2023-01-13T10:34:52.669Z,10.25
2023-01-13T10:37:22.815Z,11.05
2023-01-13T10:39:55.358Z,20.27
2023-01-13T10:42:24.702Z,10.50
2023-01-13T10:45:00.528Z,9.55
2023-01-13T10:47:34.202Z,9.77
2023-01-13T10:50:01.874Z,10.27
2023-01-13T10:52:31.935Z,13.05
2023-01-13T10:54:59.838Z,6.00
2023-01-13T10:57:28.615Z,8.23
2023-01-13T10:59:56.689Z,7.63
2023-01-13T11:02:33.301Z,16.08
2023-01-13T11:05:10.974Z,10.93
2023-01-13T11:07:54.766Z,13.57
2023-01-13T11:10:28.413Z,10.30
2023-01-13T11:13:05.604Z,6.78
2023-01-13T11:15:45.232Z,16.65
2023-01-13T11:18:23.541Z,7.13
2023-01-13T11:20:54.927Z,8.75
2023-01-13T11:23:47.839Z,7.45
2023-01-13T11:26:27.115Z,8.40
2023-01-13T11:29:14.030Z,13.90
2023-01-13T11:31:48.360Z,8.00
2023-01-13T11:34:25.480Z,10.25
2023-01-13T11:36:58.369Z,7.18
2023-01-13T11:39:45.767Z,7.35
2023-01-13T11:42:31.887Z,8.43
2023-01-13T11:45:36.910Z,10.63
2023-01-13T11:48:16.871Z,10.20
2023-01-13T11:51:00.580Z,7.13
2023-01-13T11:53:44.467Z,9.77
2023-01-13T11:56:41.757Z,9.00
2023-01-13T11:59:24.396Z,10.38
2023-01-13T12:02:10.827Z,7.55
2023-01-13T12:04:54.180Z,5.47
2023-01-13T12:10:09.911Z,10.75
2023-01-13T12:13:00.107Z,11.10
2023-01-13T12:15:56.645Z,10.90
2023-01-13T12:19:10.784Z,6.50
2023-01-13T12:22:08.924Z,4.80
2023-01-13T12:24:48.409Z,11.02
2023-01-13T12:27:47.390Z,7.32
2023-01-13T12:30:37.741Z,7.07
2023-01-13T12:33:20.212Z,9.07
2023-01-13T12:35:53.060Z,8.40
2023-01-13T12:38:47.004Z,10.70
2023-01-13T12:41:32.735Z,8.77
2023-01-13T12:44:20.476Z,12.55
2023-01-13T12:46:56.179Z,6.60
2023-01-13T12:49:36.498Z,5.85
2023-01-13T12:52:14.797Z,7.07
2023-01-13T12:54:45.177Z,11.60
2023-01-13T12:57:18.515Z,13.07
2023-01-13T13:00:06.632Z,8.93
2023-01-13T13:03:01.451Z,10.65
2023-01-13T13:05:29.062Z,9.55
2023-01-13T13:08:16.895Z,5.18
2023-01-13T13:11:33.716Z,8.48
2023-01-13T13:14:02.813Z,6.80
2023-01-13T13:16:30.482Z,8.52
2023-01-13T13:19:21.562Z,6.65
2023-01-13T13:22:07.929Z,7.43
2023-01-13T13:24:41.598Z,5.68
2023-01-13T13:27:27.191Z,8.75
2023-01-13T13:30:32.261Z,7.65
2023-01-13T13:33:29.504Z,11.45
2023-01-13T13:36:16.769Z,9.93
2023-01-13T13:39:39.943Z,10.68
2023-01-13T13:42:31.422Z,9.05
2023-01-13T13:45:20.000Z,11.82
2023-01-13T13:47:47.640Z,5.95
2023-01-13T13:50:20.556Z,8.38
2023-01-13T13:52:56.652Z,10.43
2023-01-13T13:55:26.978Z,9.70
2023-01-13T13:57:57.692Z,9.30
2023-01-13T14:00:32.232Z,8.70
2023-01-13T14:03:31.178Z,8.73
2023-01-13T14:06:04.462Z,5.43
2023-01-13T14:08:35.739Z,8.30
2023-01-13T14:11:26.838Z,10.48
2023-01-13T14:14:13.374Z,6.85
2023-01-13T14:16:41.845Z,7.97
2023-01-13T14:20:04.202Z,9.93
2023-01-13T14:22:32.775Z,8.90
2023-01-13T14:25:02.144Z,8.07
2023-01-13T14:27:31.190Z,8.10
2023-01-13T14:30:02.347Z,11.35
2023-01-13T14:32:37.109Z,7.90
2023-01-13T14:35:08.247Z,9.35
2023-01-13T14:37:43.377Z,5.60
2023-01-13T14:40:44.711Z,9.50
2023-01-13T14:43:18.544Z,7.65
2023-01-13T14:46:00.909Z,7.13
2023-01-13T14:48:36.016Z,9.27
2023-01-13T14:51:06.854Z,5.05
2023-01-13T14:53:47.324Z,8.68
2023-01-13T14:56:36.730Z,7.15
2023-01-13T14:59:34.184Z,9.98
2023-01-13T15:02:23.086Z,8.77
2023-01-13T15:04:54.351Z,9.48
2023-01-13T15:07:30.606Z,4.75
2023-01-13T15:10:00.864Z,3.83
2023-01-13T15:12:31.277Z,4.22
2023-01-13T15:14:58.966Z,8.20
2023-01-13T15:17:26.441Z,5.63
2023-01-13T15:19:54.319Z,4.30
2023-01-13T15:22:21.821Z,4.20
2023-01-13T15:24:49.525Z,5.20
2023-01-13T15:27:24.516Z,5.20
2023-01-13T15:29:52.266Z,5.47
2023-01-13T15:32:21.479Z,5.63
2023-01-13T15:34:49.422Z,10.43
2023-01-13T15:37:19.964Z,8.25
2023-01-13T15:39:47.484Z,9.30
2023-01-13T15:42:33.629Z,4.60
2023-01-13T15:45:19.443Z,6.55
2023-01-13T15:47:48.441Z,5.60
2023-01-13T15:50:17.730Z,5.57
2023-01-13T15:52:45.296Z,11.02
2023-01-13T15:55:12.912Z,7.22
2023-01-13T15:57:50.342Z,5.93
2023-01-13T16:00:21.084Z,4.10
2023-01-13T16:02:52.221Z,4.18
2023-01-13T16:05:20.133Z,4.15
2023-01-13T16:07:47.692Z,7.45
2023-01-13T16:10:26.277Z,6.88
2023-01-13T16:12:56.146Z,5.07
2023-01-13T16:15:25.116Z,7.68
2023-01-13T16:17:57.371Z,6.82
2023-01-13T16:20:25.211Z,7.10
2023-01-13T16:22:52.902Z,7.53
2023-01-13T16:25:26.194Z,9.82
2023-01-13T16:27:53.923Z,12.65
2023-01-13T16:30:31.120Z,8.75
2023-01-13T16:32:59.099Z,7.35
2023-01-13T16:35:27.490Z,8.18
2023-01-13T16:37:58.645Z,7.65
2023-01-13T16:40:33.538Z,7.43
2023-01-13T16:43:03.615Z,5.93
2023-01-13T16:45:32.369Z,10.82
2023-01-13T16:48:00.023Z,7.55
2023-01-13T16:50:41.050Z,9.65
2023-01-13T16:53:09.919Z,13.23
2023-01-13T16:55:38.931Z,4.88
2023-01-13T16:58:07.492Z,8.23
2023-01-13T17:00:35.017Z,5.00
2023-01-13T17:03:03.011Z,9.73
2023-01-13T17:05:30.457Z,5.53
2023-01-13T17:07:57.949Z,6.35
2023-01-13T17:10:26.093Z,6.82
2023-01-13T17:12:53.578Z,9.65
2023-01-13T17:15:21.112Z,11.07
2023-01-13T17:17:52.128Z,6.10
2023-01-13T17:20:19.945Z,5.78
2023-01-13T17:22:52.134Z,7.63
2023-01-13T17:25:25.345Z,6.82
2023-01-13T17:27:52.879Z,8.48
2023-01-13T17:30:21.605Z,7.95
2023-01-13T17:32:49.123Z,9.57
2023-01-13T17:35:19.561Z,9.55
2023-01-13T17:37:47.157Z,7.60
2023-01-13T17:40:14.771Z,8.68
2023-01-13T17:42:42.269Z,7.13
2023-01-13T17:45:12.152Z,8.15
2023-01-13T17:47:41.570Z,6.95
2023-01-13T17:50:09.793Z,9.90
2023-01-13T17:52:37.227Z,7.53
2023-01-13T17:55:05.021Z,9.65
2023-01-13T17:57:32.477Z,7.20
2023-01-13T17:59:59.938Z,6.93
2023-01-13T18:02:27.613Z,10.48
2023-01-13T18:04:55.166Z,7.43
2023-01-13T18:07:22.645Z,10.50
2023-01-13T18:09:50.374Z,5.95
2023-01-13T18:12:17.761Z,8.43
2023-01-13T18:14:45.221Z,8.20
2023-01-13T18:17:12.743Z,7.60
2023-01-13T18:19:58.758Z,14.40
2023-01-13T18:22:44.573Z,9.25
2023-01-13T18:25:50.309Z,12.45
2023-01-13T18:28:17.746Z,7.00
2023-01-13T18:30:45.421Z,12.40
2023-01-13T18:33:12.884Z,9.23
2023-01-13T18:35:40.423Z,6.43
2023-01-13T18:38:08.683Z,6.75
2023-01-13T18:40:36.346Z,3.88
2023-01-13T18:43:03.926Z,6.90
2023-01-13T18:45:32.461Z,5.03
2023-01-13T18:48:02.460Z,3.50
2023-01-13T18:50:30.859Z,5.20
2023-01-13T18:53:00.219Z,5.97
2023-01-13T18:55:30.847Z,8.88
2023-01-13T18:57:59.185Z,7.57
2023-01-13T19:00:27.597Z,9.07
2023-01-13T19:05:35.310Z,8.23
2023-01-13T19:08:04.184Z,11.38
2023-01-13T19:10:33.377Z,7.65
2023-01-13T19:13:02.687Z,10.82
2023-01-13T19:15:32.024Z,9.60
2023-01-13T19:18:01.329Z,8.80
2023-01-13T19:20:30.336Z,10.63
2023-01-13T19:22:57.965Z,3.58
2023-01-13T19:25:26.926Z,6.93
2023-01-13T19:27:54.550Z,5.00
2023-01-13T19:30:22.755Z,10.75
2023-01-13T19:32:50.429Z,8.55
2023-01-13T19:35:18.368Z,11.07
2023-01-13T19:37:45.962Z,6.18
2023-01-13T19:40:14.219Z,5.38
2023-01-13T19:43:04.727Z,3.97
2023-01-13T19:45:35.438Z,3.92
2023-01-13T19:48:05.244Z,6.90
2023-01-13T19:50:37.688Z,5.00
2023-01-13T19:53:06.231Z,3.20
2023-01-13T19:55:34.033Z,8.32
2023-01-13T19:58:01.622Z,7.30
2023-01-13T20:00:29.469Z,6.00
2023-01-13T20:03:03.451Z,4.28
2023-01-13T20:05:31.265Z,4.18
2023-01-13T20:07:58.850Z,3.97
2023-01-13T20:10:26.404Z,6.40
2023-01-13T20:12:53.958Z,4.03
2023-01-13T20:15:21.452Z,4.03
2023-01-13T20:17:48.983Z,4.03
2023-01-13T20:20:19.071Z,5.03
2023-01-13T20:22:47.009Z,5.63
2023-01-13T20:25:17.154Z,3.85
2023-01-13T20:27:46.468Z,5.23
2023-01-13T20:30:14.851Z,4.13
2023-01-13T20:32:43.576Z,3.78
2023-01-13T20:35:11.974Z,8.68
2023-01-13T20:37:40.588Z,2.73
2023-01-13T20:40:10.566Z,2.20
2023-01-13T20:42:45.470Z,4.40
2023-01-13T20:45:20.885Z,2.85
2023-01-13T20:47:48.648Z,5.57
2023-01-13T20:50:16.679Z,2.88
2023-01-13T20:52:44.435Z,3.42
2023-01-13T20:55:12.452Z,2.95
2023-01-13T20:57:41.283Z,7.35
2023-01-13T21:00:10.183Z,6.05
2023-01-13T21:02:40.073Z,7.18
2023-01-13T21:05:08.228Z,6.18
2023-01-13T21:07:35.760Z,7.07
2023-01-13T21:10:03.675Z,4.95
2023-01-13T21:12:49.539Z,9.43
2023-01-13T21:15:22.112Z,5.05
2023-01-13T21:20:38.354Z,5.35
2023-01-13T21:23:06.172Z,4.20
2023-01-13T21:25:35.484Z,3.40
2023-01-13T21:28:06.569Z,5.75
2023-01-13T21:30:35.256Z,6.22
2023-01-13T21:33:04.299Z,3.50
2023-01-13T21:35:32.135Z,3.60
2023-01-13T21:37:59.739Z,3.92
2023-01-13T21:40:27.522Z,3.72
2023-01-13T21:43:13.170Z,8.45
2023-01-13T21:45:59.105Z,4.05
2023-01-13T21:48:26.552Z,4.88
2023-01-13T21:50:54.052Z,5.28
2023-01-13T21:53:21.499Z,6.00
2023-01-13T21:55:52.694Z,4.60
2023-01-13T21:58:20.181Z,5.72
2023-01-13T22:00:49.035Z,4.28
2023-01-13T22:03:18.672Z,5.53
2023-01-13T22:05:46.814Z,6.65
2023-01-13T22:08:14.423Z,4.50
2023-01-13T22:10:58.240Z,10.00
2023-01-13T22:13:46.685Z,5.53
2023-01-13T22:16:15.971Z,5.00
2023-01-13T22:18:43.508Z,7.15
2023-01-13T22:21:11.336Z,5.65
2023-01-13T22:23:38.889Z,10.75
2023-01-13T22:26:07.880Z,7.13
2023-01-13T22:28:40.915Z,6.68
2023-01-13T22:31:16.995Z,6.38
2023-01-13T22:33:47.343Z,5.50
2023-01-13T22:36:15.704Z,6.60
2023-01-13T22:38:43.276Z,4.30
2023-01-13T22:41:11.517Z,2.45
2023-01-13T22:43:39.329Z,2.10
2023-01-13T22:46:10.890Z,3.03
2023-01-13T22:48:39.606Z,2.55
2023-01-13T22:51:07.308Z,6.55
2023-01-13T22:53:35.499Z,2.17
2023-01-13T22:56:03.914Z,5.07
2023-01-13T22:58:31.811Z,3.28
2023-01-13T23:01:17.185Z,5.63
2023-01-13T23:03:47.793Z,5.30
2023-01-13T23:06:16.318Z,1.90
2023-01-13T23:08:44.107Z,3.47
2023-01-13T23:11:14.406Z,3.65
2023-01-13T23:13:45.082Z,2.97
2023-01-13T23:16:19.842Z,2.90
2023-01-13T23:18:48.849Z,3.13
2023-01-13T23:21:26.366Z,3.60
2023-01-13T23:23:54.649Z,2.90
2023-01-13T23:26:22.787Z,2.90
2023-01-13T23:28:50.533Z,3.20
2023-01-13T23:31:22.495Z,2.40
2023-01-13T23:33:49.999Z,2.63
2023-01-13T23:36:20.376Z,5.32
2023-01-13T23:38:47.992Z,2.40
2023-01-13T23:41:17.725Z,4.57
2023-01-13T23:43:57.693Z,3.00
2023-01-13T23:46:26.091Z,1.85
2023-01-13T23:48:55.611Z,4.23
2023-01-13T23:51:23.383Z,2.17
2023-01-13T23:53:51.300Z,2.50
2023-01-13T23:56:21.716Z,3.15
2023-01-13T23:58:49.700Z,2.50
